sensor_id;sensor_type;location;lat;lon;timestamp;P1;P4;P2;P0;N10;N4;N25;N1;N05;TS
42106;SPS30;27764;50.278;19.032;2023-02-10T00:02:14;25;;25;;;;;;;
42106;SPS30;27764;50.278;19.032;2023-02-10T00:05:18;22;;22;;;;;;;
42106;SPS30;27764;50.278;19.032;2023-02-10T00:08:21;22;;22;;;;;;;
42106;SPS30;27764;50.278;19.032;2023-02-10T00:11:25;20;;20;;;;;;;
42106;SPS30;27764;50.278;19.032;2023-02-10T00:15:12;19;;19;;;;;;;
42106;SPS30;27764;50.278;19.032;2023-02-10T00:18:15;20;;20;;;;;;;
42106;SPS30;27764;50.278;19.032;2023-02-10T00:21:19;21;;21;;;;;;;
42106;SPS30;27764;50.278;19.032;2023-02-10T00:24:22;20;;20;;;;;;;
42106;SPS30;27764;50.278;19.032;2023-02-10T00:27:26;22;;22;;;;;;;
42106;SPS30;27764;50.278;19.032;2023-02-10T05:32:35;19;;19;;;;;;;
42106;SPS30;27764;50.278;19.032;2023-02-10T05:35:38;20;;19;;;;;;;
42106;SPS30;27764;50.278;19.032;2023-02-10T05:38:42;19;;19;;;;;;;
42106;SPS30;27764;50.278;19.032;2023-02-10T05:41:57;19;;19;;;;;;;
42106;SPS30;27764;50.278;19.032;2023-02-10T05:45:01;19;;18;;;;;;;
42106;SPS30;27764;50.278;19.032;2023-02-10T05:48:04;19;;19;;;;;;;
42106;SPS30;27764;50.278;19.032;2023-02-10T05:51:09;20;;20;;;;;;;
42106;SPS30;27764;50.278;19.032;2023-02-10T05:54:13;18;;18;;;;;;;
42106;SPS30;27764;50.278;19.032;2023-02-10T05:58:01;20;;20;;;;;;;
42106;SPS30;27764;50.278;19.032;2023-02-10T06:01:05;20;;19;;;;;;;
42106;SPS30;27764;50.278;19.032;2023-02-10T06:04:10;20;;20;;;;;;;
42106;SPS30;27764;50.278;19.032;2023-02-10T06:07:14;19;;19;;;;;;;
42106;SPS30;27764;50.278;19.032;2023-02-10T06:10:19;21;;21;;;;;;;
42106;SPS30;27764;50.278;19.032;2023-02-10T06:13:23;22;;22;;;;;;;
42106;SPS30;27764;50.278;19.032;2023-02-10T06:16:26;21;;21;;;;;;;
42106;SPS30;27764;50.278;19.032;2023-02-10T06:19:30;21;;21;;;;;;;
42106;SPS30;27764;50.278;19.032;2023-02-10T06:23:12;21;;21;;;;;;;
42106;SPS30;27764;50.278;19.032;2023-02-10T06:26:15;22;;21;;;;;;;
42106;SPS30;27764;50.278;19.032;2023-02-10T06:29:19;21;;21;;;;;;;
42106;SPS30;27764;50.278;19.032;2023-02-10T06:32:23;21;;21;;;;;;;
42106;SPS30;27764;50.278;19.032;2023-02-10T06:35:36;20;;20;;;;;;;
42106;SPS30;27764;50.278;19.032;2023-02-10T06:38:40;23;;23;;;;;;;
42106;SPS30;27764;50.278;19.032;2023-02-10T06:41:43;22;;22;;;;;;;
42106;SPS30;27764;50.278;19.032;2023-02-10T06:44:47;24;;24;;;;;;;
42106;SPS30;27764;50.278;19.032;2023-02-10T06:48:34;22;;22;;;;;;;
42106;SPS30;27764;50.278;19.032;2023-02-10T06:51:37;20;;20;;;;;;;
42106;SPS30;27764;50.278;19.032;2023-02-10T06:54:41;23;;23;;;;;;;
42106;SPS30;27764;50.278;19.032;2023-02-10T06:57:45;21;;21;;;;;;;
42106;SPS30;27764;50.278;19.032;2023-02-10T07:00:48;24;;24;;;;;;;
42106;SPS30;27764;50.278;19.032;2023-02-10T07:03:52;25;;24;;;;;;;
42106;SPS30;27764;50.278;19.032;2023-02-10T07:06:56;24;;24;;;;;;;
42106;SPS30;27764;50.278;19.032;2023-02-10T07:10:43;24;;24;;;;;;;
42106;SPS30;27764;50.278;19.032;2023-02-10T07:13:46;23;;23;;;;;;;
42106;SPS30;27764;50.278;19.032;2023-02-10T07:16:50;24;;24;;;;;;;
42106;SPS30;27764;50.278;19.032;2023-02-10T07:19:53;25;;24;;;;;;;
42106;SPS30;27764;50.278;19.032;2023-02-10T07:22:57;24;;24;;;;;;;
42106;SPS30;27764;50.278;19.032;2023-02-10T07:26:00;23;;23;;;;;;;
42106;SPS30;27764;50.278;19.032;2023-02-10T07:29:04;24;;24;;;;;;;
42106;SPS30;27764;50.278;19.032;2023-02-10T07:32:07;25;;25;;;;;;;
42106;SPS30;27764;50.278;19.032;2023-02-10T07:35:49;24;;24;;;;;;;
42106;SPS30;27764;50.278;19.032;2023-02-10T07:38:52;25;;25;;;;;;;
42106;SPS30;27764;50.278;19.032;2023-02-10T07:41:56;23;;23;;;;;;;
42106;SPS30;27764;50.278;19.032;2023-02-10T07:44:59;27;;26;;;;;;;
42106;SPS30;27764;50.278;19.032;2023-02-10T07:48:03;25;;25;;;;;;;
42106;SPS30;27764;50.278;19.032;2023-02-10T07:51:07;26;;26;;;;;;;
42106;SPS30;27764;50.278;19.032;2023-02-10T07:54:10;24;;24;;;;;;;
42106;SPS30;27764;50.278;19.032;2023-02-10T07:57:14;25;;25;;;;;;;
42106;SPS30;27764;50.278;19.032;2023-02-10T08:00:18;25;;24;;;;;;;
42106;SPS30;27764;50.278;19.032;2023-02-10T08:03:58;25;;24;;;;;;;
42106;SPS30;27764;50.278;19.032;2023-02-10T08:07:01;25;;25;;;;;;;
42106;SPS30;27764;50.278;19.032;2023-02-10T08:10:05;26;;25;;;;;;;
42106;SPS30;27764;50.278;19.032;2023-02-10T08:13:09;25;;25;;;;;;;
42106;SPS30;27764;50.278;19.032;2023-02-10T08:16:12;23;;23;;;;;;;
42106;SPS30;27764;50.278;19.032;2023-02-10T08:19:16;27;;26;;;;;;;
42106;SPS30;27764;50.278;19.032;2023-02-10T08:22:19;25;;24;;;;;;;
42106;SPS30;27764;50.278;19.032;2023-02-10T08:25:23;23;;23;;;;;;;
42106;SPS30;27764;50.278;19.032;2023-02-10T08:28:26;26;;25;;;;;;;
42106;SPS30;27764;50.278;19.032;2023-02-10T08:32:11;27;;27;;;;;;;
42106;SPS30;27764;50.278;19.032;2023-02-10T08:35:20;26;;26;;;;;;;
42106;SPS30;27764;50.278;19.032;2023-02-10T08:38:23;25;;25;;;;;;;
42106;SPS30;27764;50.278;19.032;2023-02-10T08:41:27;24;;24;;;;;;;
42106;SPS30;27764;50.278;19.032;2023-02-10T08:44:33;26;;26;;;;;;;
42106;SPS30;27764;50.278;19.032;2023-02-10T08:47:37;26;;26;;;;;;;
42106;SPS30;27764;50.278;19.032;2023-02-10T08:50:41;27;;27;;;;;;;
42106;SPS30;27764;50.278;19.032;2023-02-10T08:54:25;25;;25;;;;;;;
42106;SPS30;27764;50.278;19.032;2023-02-10T08:57:28;22;;22;;;;;;;
42106;SPS30;27764;50.278;19.032;2023-02-10T09:00:32;23;;23;;;;;;;
42106;SPS30;27764;50.278;19.032;2023-02-10T09:03:36;23;;23;;;;;;;
42106;SPS30;27764;50.278;19.032;2023-02-10T09:06:43;25;;25;;;;;;;
42106;SPS30;27764;50.278;19.032;2023-02-10T09:09:47;25;;25;;;;;;;
42106;SPS30;27764;50.278;19.032;2023-02-10T09:12:50;26;;26;;;;;;;
42106;SPS30;27764;50.278;19.032;2023-02-10T09:15:54;25;;24;;;;;;;
42106;SPS30;27764;50.278;19.032;2023-02-10T09:18:58;26;;26;;;;;;;
42106;SPS30;27764;50.278;19.032;2023-02-10T09:22:41;26;;26;;;;;;;
42106;SPS30;27764;50.278;19.032;2023-02-10T09:25:51;26;;25;;;;;;;
42106;SPS30;27764;50.278;19.032;2023-02-10T09:28:58;27;;27;;;;;;;
42106;SPS30;27764;50.278;19.032;2023-02-10T09:32:02;28;;28;;;;;;;
42106;SPS30;27764;50.278;19.032;2023-02-10T09:35:05;26;;25;;;;;;;
42106;SPS30;27764;50.278;19.032;2023-02-10T09:38:09;28;;28;;;;;;;
42106;SPS30;27764;50.278;19.032;2023-02-10T09:45:02;25;;25;;;;;;;
42106;SPS30;27764;50.278;19.032;2023-02-10T09:54:39;26;;26;;;;;;;
42106;SPS30;27764;50.278;19.032;2023-02-10T09:57:45;24;;24;;;;;;;
42106;SPS30;27764;50.278;19.032;2023-02-10T10:01:44;24;;24;;;;;;;
42106;SPS30;27764;50.278;19.032;2023-02-10T10:04:52;24;;24;;;;;;;
42106;SPS30;27764;50.278;19.032;2023-02-10T10:07:56;25;;25;;;;;;;
42106;SPS30;27764;50.278;19.032;2023-02-10T10:11:04;26;;26;;;;;;;
42106;SPS30;27764;50.278;19.032;2023-02-10T10:31:03;25;;25;;;;;;;
42106;SPS30;27764;50.278;19.032;2023-02-10T10:34:16;23;;23;;;;;;;
42106;SPS30;27764;50.278;19.032;2023-02-10T10:38:00;23;;23;;;;;;;
42106;SPS30;27764;50.278;19.032;2023-02-10T10:41:05;24;;24;;;;;;;
42106;SPS30;27764;50.278;19.032;2023-02-10T10:44:15;24;;24;;;;;;;
42106;SPS30;27764;50.278;19.032;2023-02-10T10:50:34;23;;23;;;;;;;
42106;SPS30;27764;50.278;19.032;2023-02-10T10:57:33;28;;27;;;;;;;
42106;SPS30;27764;50.278;19.032;2023-02-10T11:00:37;26;;26;;;;;;;
42106;SPS30;27764;50.278;19.032;2023-02-10T11:03:45;27;;27;;;;;;;
42106;SPS30;27764;50.278;19.032;2023-02-10T11:06:50;31;;30;;;;;;;
42106;SPS30;27764;50.278;19.032;2023-02-10T11:09:57;28;;28;;;;;;;
42106;SPS30;27764;50.278;19.032;2023-02-10T11:13:02;29;;29;;;;;;;
42106;SPS30;27764;50.278;19.032;2023-02-10T11:16:09;30;;30;;;;;;;
42106;SPS30;27764;50.278;19.032;2023-02-10T11:19:58;26;;26;;;;;;;
42106;SPS30;27764;50.278;19.032;2023-02-10T11:23:13;29;;29;;;;;;;
42106;SPS30;27764;50.278;19.032;2023-02-10T11:26:20;31;;31;;;;;;;
42106;SPS30;27764;50.278;19.032;2023-02-10T11:29:26;27;;27;;;;;;;
42106;SPS30;27764;50.278;19.032;2023-02-10T11:32:33;28;;28;;;;;;;
42106;SPS30;27764;50.278;19.032;2023-02-10T11:35:38;28;;28;;;;;;;
42106;SPS30;27764;50.278;19.032;2023-02-10T11:38:41;28;;28;;;;;;;
42106;SPS30;27764;50.278;19.032;2023-02-10T11:42:28;28;;28;;;;;;;
42106;SPS30;27764;50.278;19.032;2023-02-10T11:45:36;24;;24;;;;;;;
42106;SPS30;27764;50.278;19.032;2023-02-10T11:48:39;28;;28;;;;;;;
42106;SPS30;27764;50.278;19.032;2023-02-10T11:51:50;28;;28;;;;;;;
42106;SPS30;27764;50.278;19.032;2023-02-10T11:54:54;24;;24;;;;;;;
42106;SPS30;27764;50.278;19.032;2023-02-10T12:01:58;28;;27;;;;;;;
42106;SPS30;27764;50.278;19.032;2023-02-10T12:05:16;26;;25;;;;;;;
42106;SPS30;27764;50.278;19.032;2023-02-10T12:11:49;28;;28;;;;;;;
42106;SPS30;27764;50.278;19.032;2023-02-10T12:15:04;29;;29;;;;;;;
42106;SPS30;27764;50.278;19.032;2023-02-10T12:18:58;27;;27;;;;;;;
42106;SPS30;27764;50.278;19.032;2023-02-10T12:22:12;28;;28;;;;;;;
42106;SPS30;27764;50.278;19.032;2023-02-10T12:25:29;29;;28;;;;;;;
42106;SPS30;27764;50.278;19.032;2023-02-10T12:45:42;25;;25;;;;;;;
42106;SPS30;27764;50.278;19.032;2023-02-10T12:52:48;29;;29;;;;;;;
42106;SPS30;27764;50.278;19.032;2023-02-10T12:59:21;31;;30;;;;;;;
42106;SPS30;27764;50.278;19.032;2023-02-10T13:02:32;30;;30;;;;;;;
42106;SPS30;27764;50.278;19.032;2023-02-10T13:05:52;29;;29;;;;;;;
42106;SPS30;27764;50.278;19.032;2023-02-10T13:09:50;33;;33;;;;;;;
42106;SPS30;27764;50.278;19.032;2023-02-10T13:13:09;31;;31;;;;;;;
42106;SPS30;27764;50.278;19.032;2023-02-10T13:16:23;31;;31;;;;;;;
42106;SPS30;27764;50.278;19.032;2023-02-10T13:22:53;34;;34;;;;;;;
42106;SPS30;27764;50.278;19.032;2023-02-10T13:36:34;28;;28;;;;;;;
42106;SPS30;27764;50.278;19.032;2023-02-10T13:39:47;31;;31;;;;;;;
42106;SPS30;27764;50.278;19.032;2023-02-10T13:43:32;33;;33;;;;;;;
42106;SPS30;27764;50.278;19.032;2023-02-10T13:46:37;33;;32;;;;;;;
42106;SPS30;27764;50.278;19.032;2023-02-10T13:52:56;33;;32;;;;;;;
42106;SPS30;27764;50.278;19.032;2023-02-10T13:59:23;30;;30;;;;;;;
42106;SPS30;27764;50.278;19.032;2023-02-10T14:03:53;27;;27;;;;;;;
42106;SPS30;27764;50.278;19.032;2023-02-10T14:06:19;28;;28;;;;;;;
42106;SPS30;27764;50.278;19.032;2023-02-10T14:09:32;27;;27;;;;;;;
42106;SPS30;27764;50.278;19.032;2023-02-10T14:12:37;29;;29;;;;;;;
42106;SPS30;27764;50.278;19.032;2023-02-10T14:15:53;26;;26;;;;;;;
42106;SPS30;27764;50.278;19.032;2023-02-10T14:19:00;28;;28;;;;;;;
42106;SPS30;27764;50.278;19.032;2023-02-10T14:26:04;30;;30;;;;;;;
42106;SPS30;27764;50.278;19.032;2023-02-10T14:29:14;31;;30;;;;;;;
42106;SPS30;27764;50.278;19.032;2023-02-10T14:32:19;30;;30;;;;;;;
42106;SPS30;27764;50.278;19.032;2023-02-10T14:35:24;29;;28;;;;;;;
42106;SPS30;27764;50.278;19.032;2023-02-10T14:38:31;31;;30;;;;;;;
42106;SPS30;27764;50.278;19.032;2023-02-10T14:41:39;31;;31;;;;;;;
42106;SPS30;27764;50.278;19.032;2023-02-10T14:44:46;30;;29;;;;;;;
42106;SPS30;27764;50.278;19.032;2023-02-10T14:47:52;32;;32;;;;;;;
42106;SPS30;27764;50.278;19.032;2023-02-10T14:51:41;27;;27;;;;;;;
42106;SPS30;27764;50.278;19.032;2023-02-10T14:54:46;27;;27;;;;;;;
42106;SPS30;27764;50.278;19.032;2023-02-10T14:57:50;27;;27;;;;;;;
42106;SPS30;27764;50.278;19.032;2023-02-10T15:00:58;38;;38;;;;;;;
42106;SPS30;27764;50.278;19.032;2023-02-10T15:04:07;36;;36;;;;;;;
42106;SPS30;27764;50.278;19.032;2023-02-10T15:07:18;37;;37;;;;;;;
42106;SPS30;27764;50.278;19.032;2023-02-10T15:14:33;35;;35;;;;;;;
42106;SPS30;27764;50.278;19.032;2023-02-10T15:17:38;33;;33;;;;;;;
42106;SPS30;27764;50.278;19.032;2023-02-10T15:23:57;34;;34;;;;;;;
42106;SPS30;27764;50.278;19.032;2023-02-10T15:30:23;35;;34;;;;;;;
42106;SPS30;27764;50.278;19.032;2023-02-10T15:34:20;34;;34;;;;;;;
42106;SPS30;27764;50.278;19.032;2023-02-10T15:37:27;36;;36;;;;;;;
42106;SPS30;27764;50.278;19.032;2023-02-10T15:40:34;33;;33;;;;;;;
42106;SPS30;27764;50.278;19.032;2023-02-10T15:43:38;38;;37;;;;;;;
42106;SPS30;27764;50.278;19.032;2023-02-10T15:46:52;38;;38;;;;;;;
42106;SPS30;27764;50.278;19.032;2023-02-10T15:49:58;37;;36;;;;;;;
42106;SPS30;27764;50.278;19.032;2023-02-10T15:53:48;38;;37;;;;;;;
42106;SPS30;27764;50.278;19.032;2023-02-10T16:00:09;34;;34;;;;;;;
42106;SPS30;27764;50.278;19.032;2023-02-10T16:03:19;39;;39;;;;;;;
42106;SPS30;27764;50.278;19.032;2023-02-10T16:06:22;38;;38;;;;;;;
42106;SPS30;27764;50.278;19.032;2023-02-10T16:09:26;41;;41;;;;;;;
42106;SPS30;27764;50.278;19.032;2023-02-10T16:13:22;37;;37;;;;;;;
42106;SPS30;27764;50.278;19.032;2023-02-10T16:16:26;41;;41;;;;;;;
42106;SPS30;27764;50.278;19.032;2023-02-10T16:19:29;35;;35;;;;;;;
42106;SPS30;27764;50.278;19.032;2023-02-10T16:22:33;41;;40;;;;;;;
42106;SPS30;27764;50.278;19.032;2023-02-10T16:25:36;42;;41;;;;;;;
42106;SPS30;27764;50.278;19.032;2023-02-10T16:28:40;39;;39;;;;;;;
42106;SPS30;27764;50.278;19.032;2023-02-10T16:31:43;39;;39;;;;;;;
42106;SPS30;27764;50.278;19.032;2023-02-10T16:34:47;46;;46;;;;;;;
42106;SPS30;27764;50.278;19.032;2023-02-10T16:38:46;40;;40;;;;;;;
42106;SPS30;27764;50.278;19.032;2023-02-10T16:41:49;43;;43;;;;;;;
42106;SPS30;27764;50.278;19.032;2023-02-10T16:44:53;43;;43;;;;;;;
42106;SPS30;27764;50.278;19.032;2023-02-10T16:47:57;42;;42;;;;;;;
42106;SPS30;27764;50.278;19.032;2023-02-10T16:51:01;41;;41;;;;;;;
42106;SPS30;27764;50.278;19.032;2023-02-10T16:54:04;39;;39;;;;;;;
42106;SPS30;27764;50.278;19.032;2023-02-10T16:58:23;33;;33;;;;;;;
42106;SPS30;27764;50.278;19.032;2023-02-10T17:01:27;45;;45;;;;;;;
42106;SPS30;27764;50.278;19.032;2023-02-10T17:04:31;48;;47;;;;;;;
42106;SPS30;27764;50.278;19.032;2023-02-10T17:07:35;47;;47;;;;;;;
42106;SPS30;27764;50.278;19.032;2023-02-10T17:10:39;50;;50;;;;;;;
42106;SPS30;27764;50.278;19.032;2023-02-10T17:13:43;50;;50;;;;;;;
42106;SPS30;27764;50.278;19.032;2023-02-10T17:16:50;53;;53;;;;;;;
42106;SPS30;27764;50.278;19.032;2023-02-10T17:19:54;48;;47;;;;;;;
42106;SPS30;27764;50.278;19.032;2023-02-10T17:23:41;51;;50;;;;;;;
42106;SPS30;27764;50.278;19.032;2023-02-10T17:26:45;54;;53;;;;;;;
42106;SPS30;27764;50.278;19.032;2023-02-10T17:29:51;53;;53;;;;;;;
42106;SPS30;27764;50.278;19.032;2023-02-10T17:32:55;52;;51;;;;;;;
42106;SPS30;27764;50.278;19.032;2023-02-10T17:35:59;46;;46;;;;;;;
42106;SPS30;27764;50.278;19.032;2023-02-10T17:39:02;52;;51;;;;;;;
42106;SPS30;27764;50.278;19.032;2023-02-10T17:42:14;50;;50;;;;;;;
42106;SPS30;27764;50.278;19.032;2023-02-10T17:45:59;50;;50;;;;;;;
42106;SPS30;27764;50.278;19.032;2023-02-10T17:49:02;57;;56;;;;;;;
42106;SPS30;27764;50.278;19.032;2023-02-10T17:52:05;49;;49;;;;;;;
42106;SPS30;27764;50.278;19.032;2023-02-10T17:55:09;48;;47;;;;;;;
42106;SPS30;27764;50.278;19.032;2023-02-10T17:58:15;54;;53;;;;;;;
42106;SPS30;27764;50.278;19.032;2023-02-10T18:01:19;51;;51;;;;;;;
42106;SPS30;27764;50.278;19.032;2023-02-10T18:04:27;48;;47;;;;;;;
42106;SPS30;27764;50.278;19.032;2023-02-10T18:08:14;49;;49;;;;;;;
42106;SPS30;27764;50.278;19.032;2023-02-10T18:11:17;53;;53;;;;;;;
42106;SPS30;27764;50.278;19.032;2023-02-10T18:14:20;48;;48;;;;;;;
42106;SPS30;27764;50.278;19.032;2023-02-10T18:17:24;51;;51;;;;;;;
42106;SPS30;27764;50.278;19.032;2023-02-10T18:20:27;50;;50;;;;;;;
42106;SPS30;27764;50.278;19.032;2023-02-10T18:23:31;49;;49;;;;;;;
42106;SPS30;27764;50.278;19.032;2023-02-10T18:26:34;50;;50;;;;;;;
42106;SPS30;27764;50.278;19.032;2023-02-10T18:29:37;50;;50;;;;;;;
42106;SPS30;27764;50.278;19.032;2023-02-10T18:33:25;47;;47;;;;;;;
42106;SPS30;27764;50.278;19.032;2023-02-10T18:36:30;48;;48;;;;;;;
42106;SPS30;27764;50.278;19.032;2023-02-10T18:39:34;50;;49;;;;;;;
42106;SPS30;27764;50.278;19.032;2023-02-10T18:42:37;47;;47;;;;;;;
42106;SPS30;27764;50.278;19.032;2023-02-10T18:45:41;47;;47;;;;;;;
42106;SPS30;27764;50.278;19.032;2023-02-10T18:48:47;47;;46;;;;;;;
42106;SPS30;27764;50.278;19.032;2023-02-10T18:51:50;45;;45;;;;;;;
42106;SPS30;27764;50.278;19.032;2023-02-10T18:54:56;47;;46;;;;;;;
42106;SPS30;27764;50.278;19.032;2023-02-10T18:58:35;47;;46;;;;;;;
42106;SPS30;27764;50.278;19.032;2023-02-10T19:01:39;46;;46;;;;;;;
42106;SPS30;27764;50.278;19.032;2023-02-10T19:04:42;43;;43;;;;;;;
42106;SPS30;27764;50.278;19.032;2023-02-10T19:07:46;47;;46;;;;;;;
42106;SPS30;27764;50.278;19.032;2023-02-10T19:10:49;48;;47;;;;;;;
42106;SPS30;27764;50.278;19.032;2023-02-10T19:13:52;48;;47;;;;;;;
42106;SPS30;27764;50.278;19.032;2023-02-10T19:16:56;46;;46;;;;;;;
42106;SPS30;27764;50.278;19.032;2023-02-10T19:19:59;41;;41;;;;;;;
42106;SPS30;27764;50.278;19.032;2023-02-10T19:23:42;44;;43;;;;;;;
42106;SPS30;27764;50.278;19.032;2023-02-10T19:26:46;45;;44;;;;;;;
42106;SPS30;27764;50.278;19.032;2023-02-10T19:29:49;43;;43;;;;;;;
42106;SPS30;27764;50.278;19.032;2023-02-10T19:32:52;45;;44;;;;;;;
42106;SPS30;27764;50.278;19.032;2023-02-10T19:35:56;44;;44;;;;;;;
42106;SPS30;27764;50.278;19.032;2023-02-10T19:39:00;47;;46;;;;;;;
42106;SPS30;27764;50.278;19.032;2023-02-10T19:42:03;48;;47;;;;;;;
42106;SPS30;27764;50.278;19.032;2023-02-10T19:45:50;46;;45;;;;;;;
42106;SPS30;27764;50.278;19.032;2023-02-10T19:48:54;49;;49;;;;;;;
42106;SPS30;27764;50.278;19.032;2023-02-10T19:51:57;51;;50;;;;;;;
42106;SPS30;27764;50.278;19.032;2023-02-10T19:55:01;49;;48;;;;;;;
42106;SPS30;27764;50.278;19.032;2023-02-10T19:58:04;51;;50;;;;;;;
42106;SPS30;27764;50.278;19.032;2023-02-10T20:01:10;49;;49;;;;;;;
42106;SPS30;27764;50.278;19.032;2023-02-10T20:04:17;47;;47;;;;;;;
42106;SPS30;27764;50.278;19.032;2023-02-10T20:07:20;45;;45;;;;;;;
42106;SPS30;27764;50.278;19.032;2023-02-10T20:11:03;50;;49;;;;;;;
42106;SPS30;27764;50.278;19.032;2023-02-10T20:14:07;49;;49;;;;;;;
42106;SPS30;27764;50.278;19.032;2023-02-10T20:17:12;47;;47;;;;;;;
42106;SPS30;27764;50.278;19.032;2023-02-10T20:20:16;50;;50;;;;;;;
42106;SPS30;27764;50.278;19.032;2023-02-10T20:23:22;51;;51;;;;;;;
42106;SPS30;27764;50.278;19.032;2023-02-10T20:26:26;50;;50;;;;;;;
42106;SPS30;27764;50.278;19.032;2023-02-10T20:29:30;53;;52;;;;;;;
42106;SPS30;27764;50.278;19.032;2023-02-10T20:36:04;51;;51;;;;;;;
42106;SPS30;27764;50.278;19.032;2023-02-10T20:39:09;49;;48;;;;;;;
42106;SPS30;27764;50.278;19.032;2023-02-10T20:42:13;48;;47;;;;;;;
42106;SPS30;27764;50.278;19.032;2023-02-10T20:45:17;51;;50;;;;;;;
42106;SPS30;27764;50.278;19.032;2023-02-10T20:48:21;51;;50;;;;;;;
42106;SPS30;27764;50.278;19.032;2023-02-10T20:51:25;52;;51;;;;;;;
42106;SPS30;27764;50.278;19.032;2023-02-10T20:55:18;53;;52;;;;;;;
42106;SPS30;27764;50.278;19.032;2023-02-10T20:58:22;50;;50;;;;;;;
42106;SPS30;27764;50.278;19.032;2023-02-10T21:01:26;54;;53;;;;;;;
42106;SPS30;27764;50.278;19.032;2023-02-10T21:04:29;51;;50;;;;;;;
42106;SPS30;27764;50.278;19.032;2023-02-10T21:07:33;49;;49;;;;;;;
42106;SPS30;27764;50.278;19.032;2023-02-10T21:10:37;44;;44;;;;;;;
42106;SPS30;27764;50.278;19.032;2023-02-10T21:13:44;53;;53;;;;;;;
42106;SPS30;27764;50.278;19.032;2023-02-10T21:16:47;54;;53;;;;;;;
42106;SPS30;27764;50.278;19.032;2023-02-10T21:20:27;47;;46;;;;;;;
42106;SPS30;27764;50.278;19.032;2023-02-10T21:23:31;52;;51;;;;;;;
42106;SPS30;27764;50.278;19.032;2023-02-10T21:26:34;46;;46;;;;;;;
42106;SPS30;27764;50.278;19.032;2023-02-10T21:29:38;48;;48;;;;;;;
42106;SPS30;27764;50.278;19.032;2023-02-10T21:32:41;50;;49;;;;;;;
42106;SPS30;27764;50.278;19.032;2023-02-10T21:35:45;45;;45;;;;;;;
42106;SPS30;27764;50.278;19.032;2023-02-10T21:38:51;50;;50;;;;;;;
42106;SPS30;27764;50.278;19.032;2023-02-10T21:41:56;49;;49;;;;;;;
42106;SPS30;27764;50.278;19.032;2023-02-10T21:48:52;45;;45;;;;;;;
42106;SPS30;27764;50.278;19.032;2023-02-10T21:51:55;51;;50;;;;;;;
42106;SPS30;27764;50.278;19.032;2023-02-10T21:54:59;50;;50;;;;;;;
42106;SPS30;27764;50.278;19.032;2023-02-10T21:58:02;49;;48;;;;;;;
42106;SPS30;27764;50.278;19.032;2023-02-10T22:02:39;54;;53;;;;;;;
42106;SPS30;27764;50.278;19.032;2023-02-10T22:05:51;53;;52;;;;;;;
42106;SPS30;27764;50.278;19.032;2023-02-10T22:08:58;55;;54;;;;;;;
42106;SPS30;27764;50.278;19.032;2023-02-10T22:12:02;53;;52;;;;;;;
42106;SPS30;27764;50.278;19.032;2023-02-10T22:15:08;54;;54;;;;;;;
42106;SPS30;27764;50.278;19.032;2023-02-10T22:18:11;50;;50;;;;;;;
42106;SPS30;27764;50.278;19.032;2023-02-10T22:21:16;55;;55;;;;;;;
42106;SPS30;27764;50.278;19.032;2023-02-10T22:24:58;48;;48;;;;;;;
42106;SPS30;27764;50.278;19.032;2023-02-10T22:28:01;53;;52;;;;;;;
42106;SPS30;27764;50.278;19.032;2023-02-10T22:31:05;52;;51;;;;;;;
42106;SPS30;27764;50.278;19.032;2023-02-10T22:34:10;51;;51;;;;;;;
42106;SPS30;27764;50.278;19.032;2023-02-10T22:37:13;47;;47;;;;;;;
42106;SPS30;27764;50.278;19.032;2023-02-10T22:40:17;52;;52;;;;;;;
42106;SPS30;27764;50.278;19.032;2023-02-10T22:43:20;53;;53;;;;;;;
42106;SPS30;27764;50.278;19.032;2023-02-10T22:46:23;54;;53;;;;;;;
42106;SPS30;27764;50.278;19.032;2023-02-10T22:50:17;54;;53;;;;;;;
42106;SPS30;27764;50.278;19.032;2023-02-10T22:53:20;49;;49;;;;;;;
42106;SPS30;27764;50.278;19.032;2023-02-10T22:56:24;53;;52;;;;;;;
42106;SPS30;27764;50.278;19.032;2023-02-10T22:59:29;52;;51;;;;;;;
42106;SPS30;27764;50.278;19.032;2023-02-10T23:02:32;56;;55;;;;;;;
42106;SPS30;27764;50.278;19.032;2023-02-10T23:05:36;52;;52;;;;;;;
42106;SPS30;27764;50.278;19.032;2023-02-10T23:08:40;54;;53;;;;;;;
42106;SPS30;27764;50.278;19.032;2023-02-10T23:11:47;49;;48;;;;;;;
42106;SPS30;27764;50.278;19.032;2023-02-10T23:15:26;52;;52;;;;;;;
42106;SPS30;27764;50.278;19.032;2023-02-10T23:18:30;53;;53;;;;;;;
42106;SPS30;27764;50.278;19.032;2023-02-10T23:21:34;52;;52;;;;;;;
42106;SPS30;27764;50.278;19.032;2023-02-10T23:24:37;53;;53;;;;;;;
42106;SPS30;27764;50.278;19.032;2023-02-10T23:27:41;49;;49;;;;;;;
42106;SPS30;27764;50.278;19.032;2023-02-10T23:30:44;53;;52;;;;;;;
42106;SPS30;27764;50.278;19.032;2023-02-10T23:33:48;44;;44;;;;;;;
42106;SPS30;27764;50.278;19.032;2023-02-10T23:36:52;49;;48;;;;;;;
42106;SPS30;27764;50.278;19.032;2023-02-10T23:40:35;50;;50;;;;;;;
42106;SPS30;27764;50.278;19.032;2023-02-10T23:43:39;51;;50;;;;;;;
42106;SPS30;27764;50.278;19.032;2023-02-10T23:46:43;49;;48;;;;;;;
42106;SPS30;27764;50.278;19.032;2023-02-10T23:49:46;53;;52;;;;;;;
42106;SPS30;27764;50.278;19.032;2023-02-10T23:52:50;46;;46;;;;;;;
42106;SPS30;27764;50.278;19.032;2023-02-10T23:55:53;44;;44;;;;;;;
42106;SPS30;27764;50.278;19.032;2023-02-10T23:58:57;52;;52;;;;;;;
